Time;durP1;ratioP1;P1;durP2;ratioP2;P2;SDS_P1;SDS_P2;PMS_P1;PMS_P2;Temp;Humidity;BMP_temperature;BMP_pressure;BME280_temperature;BME280_humidity;BME280_pressure;Samples;Min_cycle;Max_cycle;Signal;HPM_P1;HPM_P2
2023/09/15 00:00:20;;;;;;;5.75;3.58;;;;;;;;;;6064130;23;20007;-78
2023/09/15 00:02:49;;;;;;;5.85;3.05;;;;;;;;;;6063525;23;20046;-78
2023/09/15 00:05:15;;;;;;;10.55;3.65;;;;;;;;;;6065257;23;20009;-77
2023/09/15 00:07:41;;;;;;;6.95;3.78;;;;;;;;;;6063366;23;20400;-77
2023/09/15 00:10:07;;;;;;;11.80;3.55;;;;;;;;;;6063390;23;20015;-77
2023/09/15 00:12:34;;;;;;;5.38;3.15;;;;;;;;;;6063169;23;20045;-78
2023/09/15 00:15:07;;;;;;;5.07;3.03;;;;;;;;;;6065103;23;20530;-78
2023/09/15 00:17:34;;;;;;;6.57;3.35;;;;;;;;;;6064397;23;20010;-77
2023/09/15 00:20:00;;;;;;;5.00;3.47;;;;;;;;;;6068122;23;20010;-79
2023/09/15 00:22:26;;;;;;;5.55;3.10;;;;;;;;;;6093390;23;20007;-78
2023/09/15 00:24:51;;;;;;;4.18;3.22;;;;;;;;;;6068212;23;20014;-79
2023/09/15 00:27:17;;;;;;;3.67;2.83;;;;;;;;;;6068022;23;20290;-77
2023/09/15 00:29:43;;;;;;;5.05;3.33;;;;;;;;;;6093967;23;20473;-79
2023/09/15 00:32:09;;;;;;;6.15;2.92;;;;;;;;;;6067755;23;20041;-78
2023/09/15 00:34:34;;;;;;;5.97;3.78;;;;;;;;;;6093982;23;20029;-77
2023/09/15 00:37:00;;;;;;;11.00;3.45;;;;;;;;;;6093584;23;20010;-78
2023/09/15 00:39:25;;;;;;;7.18;3.13;;;;;;;;;;6068484;23;20010;-80
2023/09/15 00:41:51;;;;;;;5.40;3.45;;;;;;;;;;6068433;23;20060;-80
2023/09/15 00:44:16;;;;;;;4.55;2.83;;;;;;;;;;6093874;23;20084;-79
2023/09/15 00:46:42;;;;;;;6.15;3.20;;;;;;;;;;6068093;23;20003;-78
2023/09/15 00:49:07;;;;;;;5.97;3.40;;;;;;;;;;6093331;23;20033;-78
2023/09/15 00:51:33;;;;;;;11.82;5.57;;;;;;;;;;6093799;23;20064;-78
2023/09/15 00:54:00;;;;;;;6.00;4.78;;;;;;;;;;6068043;23;20372;-78
2023/09/15 00:56:26;;;;;;;6.47;4.07;;;;;;;;;;6067669;23;20006;-78
2023/09/15 00:58:52;;;;;;;5.13;3.72;;;;;;;;;;6067986;23;20053;-78
2023/09/15 01:01:18;;;;;;;4.50;3.15;;;;;;;;;;6093504;23;20038;-78
2023/09/15 01:03:45;;;;;;;3.85;2.95;;;;;;;;;;6069826;23;20010;-79
2023/09/15 01:06:12;;;;;;;7.18;3.67;;;;;;;;;;6094572;23;20010;-78
2023/09/15 01:08:38;;;;;;;6.65;3.08;;;;;;;;;;6094497;23;20714;-77
2023/09/15 01:11:04;;;;;;;6.95;3.25;;;;;;;;;;6094264;23;20009;-78
2023/09/15 01:13:34;;;;;;;6.95;3.78;;;;;;;;;;6068420;23;20010;-78
2023/09/15 01:16:21;;;;;;;4.55;3.33;;;;;;;;;;6096825;23;20002;-79
2023/09/15 01:18:57;;;;;;;3.97;2.92;;;;;;;;;;6101576;23;20026;-78
2023/09/15 01:22:07;;;;;;;4.10;3.00;;;;;;;;;;6100314;23;20006;-78
2023/09/15 01:24:48;;;;;;;13.48;3.78;;;;;;;;;;6027553;23;20022;-79
2023/09/15 01:27:29;;;;;;;6.57;3.40;;;;;;;;;;6068241;23;20705;-79
2023/09/15 01:30:00;;;;;;;4.15;2.90;;;;;;;;;;6096044;23;20010;-80
2023/09/15 01:32:27;;;;;;;7.40;3.55;;;;;;;;;;6069616;23;20006;-79
2023/09/15 01:34:53;;;;;;;4.70;3.53;;;;;;;;;;6095638;23;20017;-78
2023/09/15 01:37:20;;;;;;;8.25;2.97;;;;;;;;;;6095018;23;20006;-78
2023/09/15 01:39:47;;;;;;;4.53;2.88;;;;;;;;;;6095374;23;20002;-80
2023/09/15 01:42:13;;;;;;;6.60;2.90;;;;;;;;;;6069285;23;20089;-78
2023/09/15 01:44:38;;;;;;;6.90;3.08;;;;;;;;;;6070514;23;20042;-78
2023/09/15 01:47:08;;;;;;;5.22;3.35;;;;;;;;;;6096284;23;20006;-79
2023/09/15 01:49:34;;;;;;;4.75;3.05;;;;;;;;;;6095965;23;20011;-78
2023/09/15 01:52:01;;;;;;;7.15;3.22;;;;;;;;;;6069744;23;20042;-78
2023/09/15 01:54:27;;;;;;;3.72;2.75;;;;;;;;;;6069581;23;20487;-79
2023/09/15 01:56:52;;;;;;;5.85;2.50;;;;;;;;;;6095583;23;20006;-79
2023/09/15 01:59:18;;;;;;;6.07;3.53;;;;;;;;;;6069319;23;20058;-78
2023/09/15 02:01:43;;;;;;;9.50;3.33;;;;;;;;;;6069578;23;20088;-78
2023/09/15 02:04:09;;;;;;;5.75;2.78;;;;;;;;;;6069557;23;20006;-78
2023/09/15 02:06:35;;;;;;;4.18;2.90;;;;;;;;;;6069265;23;20014;-76
2023/09/15 02:09:02;;;;;;;5.95;3.03;;;;;;;;;;6069326;23;20009;-79
2023/09/15 02:11:27;;;;;;;4.00;2.78;;;;;;;;;;6094679;23;20530;-78
2023/09/15 02:13:53;;;;;;;5.28;2.90;;;;;;;;;;6094737;23;20026;-78
2023/09/15 02:16:18;;;;;;;5.70;3.47;;;;;;;;;;6094102;23;20069;-78
2023/09/15 02:18:44;;;;;;;6.40;3.20;;;;;;;;;;6068650;23;20029;-79
2023/09/15 02:21:10;;;;;;;4.95;2.72;;;;;;;;;;6069257;23;20010;-78
2023/09/15 02:23:35;;;;;;;7.00;3.15;;;;;;;;;;6093055;23;20011;-78
2023/09/15 02:26:05;;;;;;;5.30;3.05;;;;;;;;;;6094972;23;20013;-79
2023/09/15 02:28:31;;;;;;;4.25;2.83;;;;;;;;;;6068639;23;20380;-79
2023/09/15 02:30:57;;;;;;;4.65;3.28;;;;;;;;;;6094793;23;20006;-78
2023/09/15 02:33:23;;;;;;;5.10;3.15;;;;;;;;;;6094399;23;20060;-79
2023/09/15 02:35:49;;;;;;;6.03;3.30;;;;;;;;;;6094671;23;20002;-78
2023/09/15 02:38:15;;;;;;;4.57;2.88;;;;;;;;;;6069367;23;20033;-78
2023/09/15 02:40:41;;;;;;;6.90;3.33;;;;;;;;;;6093373;23;20590;-79
2023/09/15 02:43:08;;;;;;;4.70;2.95;;;;;;;;;;6072025;23;20014;-79
2023/09/15 02:45:35;;;;;;;4.57;3.42;;;;;;;;;;6073464;23;20090;-79
2023/09/15 02:48:02;;;;;;;5.00;3.25;;;;;;;;;;6101720;23;20006;-80
2023/09/15 02:50:27;;;;;;;6.28;3.28;;;;;;;;;;6100044;23;20010;-79
2023/09/15 02:52:53;;;;;;;6.15;3.28;;;;;;;;;;6075826;23;20463;-77
2023/09/15 02:55:19;;;;;;;5.07;2.72;;;;;;;;;;6116212;23;20009;-76
2023/09/15 02:57:44;;;;;;;4.68;3.05;;;;;;;;;;6103093;23;20097;-78
2023/09/15 03:00:13;;;;;;;7.97;3.50;;;;;;;;;;6076023;23;20719;-79
2023/09/15 03:02:40;;;;;;;9.02;2.95;;;;;;;;;;6073212;23;20006;-78
2023/09/15 03:05:08;;;;;;;5.32;3.60;;;;;;;;;;6069801;23;20007;-78
2023/09/15 03:07:36;;;;;;;5.45;2.97;;;;;;;;;;6068959;23;20471;-78
2023/09/15 03:10:03;;;;;;;4.07;3.28;;;;;;;;;;6068846;23;20014;-78
2023/09/15 03:12:29;;;;;;;5.38;3.47;;;;;;;;;;6094221;23;20006;-78
2023/09/15 03:14:54;;;;;;;8.20;4.35;;;;;;;;;;6068630;23;20011;-77
2023/09/15 03:17:21;;;;;;;5.13;3.63;;;;;;;;;;6094043;23;20010;-79
2023/09/15 03:19:47;;;;;;;4.50;3.35;;;;;;;;;;6068574;23;20025;-78
2023/09/15 03:22:13;;;;;;;3.63;3.25;;;;;;;;;;6068579;23;20590;-78
2023/09/15 03:24:38;;;;;;;5.13;3.40;;;;;;;;;;6068632;23;20094;-78
2023/09/15 03:27:05;;;;;;;6.07;3.30;;;;;;;;;;6068905;23;20007;-80
2023/09/15 03:29:30;;;;;;;8.77;4.20;;;;;;;;;;6069086;23;20668;-80
2023/09/15 03:31:57;;;;;;;4.13;3.33;;;;;;;;;;6094908;23;20002;-78
2023/09/15 03:34:23;;;;;;;5.05;3.38;;;;;;;;;;6069304;23;20010;-78
2023/09/15 03:36:49;;;;;;;4.93;3.33;;;;;;;;;;6069889;23;20092;-79
2023/09/15 03:39:15;;;;;;;10.70;3.90;;;;;;;;;;6079729;23;20013;-76
2023/09/15 03:41:40;;;;;;;4.28;3.17;;;;;;;;;;6097611;23;20014;-78
2023/09/15 03:44:07;;;;;;;5.32;3.38;;;;;;;;;;6074247;23;20053;-80
2023/09/15 03:46:33;;;;;;;5.72;3.30;;;;;;;;;;6110656;23;20014;-78
2023/09/15 03:48:58;;;;;;;8.48;4.03;;;;;;;;;;6080832;23;20002;-79
2023/09/15 03:51:25;;;;;;;3.85;3.22;;;;;;;;;;6108493;23;20006;-79
2023/09/15 03:53:51;;;;;;;7.10;3.42;;;;;;;;;;6076827;23;20006;-78
2023/09/15 03:56:16;;;;;;;5.85;3.40;;;;;;;;;;6072229;23;20010;-76
2023/09/15 03:58:43;;;;;;;5.97;3.63;;;;;;;;;;6095276;23;20427;-77
2023/09/15 04:01:09;;;;;;;5.35;3.70;;;;;;;;;;6094445;23;20101;-79
2023/09/15 04:03:35;;;;;;;8.25;4.13;;;;;;;;;;6068801;23;20384;-79
2023/09/15 04:06:00;;;;;;;9.27;3.97;;;;;;;;;;6094671;23;20009;-78
2023/09/15 04:08:26;;;;;;;8.48;3.70;;;;;;;;;;6094894;23;20002;-78
2023/09/15 04:10:52;;;;;;;12.75;3.70;;;;;;;;;;6095120;23;20010;-78
2023/09/15 04:13:17;;;;;;;7.32;3.75;;;;;;;;;;6094226;23;20003;-76
2023/09/15 04:15:43;;;;;;;6.18;3.42;;;;;;;;;;6069448;23;20432;-77
2023/09/15 04:18:08;;;;;;;6.10;3.30;;;;;;;;;;6068481;23;20397;-79
2023/09/15 04:20:34;;;;;;;6.25;3.97;;;;;;;;;;6093965;23;20003;-78
2023/09/15 04:23:00;;;;;;;6.63;3.95;;;;;;;;;;6069200;23;20033;-78
2023/09/15 04:25:25;;;;;;;10.48;3.92;;;;;;;;;;6070238;23;20104;-78
2023/09/15 04:27:51;;;;;;;9.45;4.38;;;;;;;;;;6069784;23;20041;-78
2023/09/15 04:30:17;;;;;;;8.15;3.90;;;;;;;;;;6073192;23;20026;-78
2023/09/15 04:32:42;;;;;;;7.10;4.18;;;;;;;;;;6069723;23;20038;-76
2023/09/15 04:35:09;;;;;;;9.95;4.65;;;;;;;;;;6093347;23;20369;-75
2023/09/15 04:37:35;;;;;;;9.10;4.38;;;;;;;;;;6070753;23;20025;-77
2023/09/15 04:40:03;;;;;;;5.00;3.97;;;;;;;;;;6048545;23;20018;-77
2023/09/15 04:42:29;;;;;;;9.85;4.70;;;;;;;;;;6094655;23;20377;-79
2023/09/15 04:44:54;;;;;;;6.68;4.10;;;;;;;;;;6069872;23;20002;-79
2023/09/15 04:47:34;;;;;;;5.75;4.43;;;;;;;;;;6094634;23;20017;-78
2023/09/15 04:50:14;;;;;;;9.57;4.25;;;;;;;;;;6070635;23;20068;-82
2023/09/15 04:52:39;;;;;;;7.15;4.45;;;;;;;;;;6069973;23;20003;-77
2023/09/15 04:55:05;;;;;;;6.53;3.70;;;;;;;;;;6068860;23;20017;-77
2023/09/15 04:57:32;;;;;;;7.20;3.85;;;;;;;;;;6093967;23;20050;-78
2023/09/15 04:59:57;;;;;;;9.13;4.57;;;;;;;;;;6067877;23;20010;-76
2023/09/15 05:02:23;;;;;;;7.18;4.90;;;;;;;;;;6063842;23;20019;-74
2023/09/15 05:04:53;;;;;;;7.85;4.43;;;;;;;;;;6093620;23;19998;-74
2023/09/15 05:07:19;;;;;;;5.18;4.10;;;;;;;;;;6096125;23;20081;-75
2023/09/15 05:09:45;;;;;;;5.60;3.92;;;;;;;;;;6095715;23;20049;-77
2023/09/15 05:12:11;;;;;;;5.93;4.60;;;;;;;;;;6066262;23;20010;-76
2023/09/15 05:14:37;;;;;;;8.60;4.80;;;;;;;;;;6070191;23;20038;-75
2023/09/15 05:17:03;;;;;;;8.63;4.78;;;;;;;;;;6072774;23;20010;-73
2023/09/15 05:19:28;;;;;;;5.07;4.35;;;;;;;;;;6073104;23;20050;-80
2023/09/15 05:21:55;;;;;;;8.75;4.90;;;;;;;;;;6077126;23;20009;-77
2023/09/15 05:24:21;;;;;;;7.82;4.57;;;;;;;;;;6075839;23;20014;-73
2023/09/15 05:26:46;;;;;;;6.40;3.97;;;;;;;;;;6095722;23;20047;-79
2023/09/15 05:29:12;;;;;;;8.10;4.32;;;;;;;;;;6102629;23;20034;-74
2023/09/15 05:31:37;;;;;;;10.43;4.55;;;;;;;;;;6096193;23;20345;-80
2023/09/15 05:34:03;;;;;;;6.63;4.40;;;;;;;;;;6095122;23;20022;-79
2023/09/15 05:36:29;;;;;;;10.63;4.43;;;;;;;;;;6066284;23;20010;-78
2023/09/15 05:38:55;;;;;;;5.53;3.85;;;;;;;;;;6090173;23;20012;-76
2023/09/15 05:41:21;;;;;;;6.25;4.35;;;;;;;;;;6068243;23;20097;-75
2023/09/15 05:43:46;;;;;;;8.90;5.22;;;;;;;;;;6093048;23;20002;-75
2023/09/15 05:46:12;;;;;;;9.85;5.32;;;;;;;;;;6068746;23;20013;-76
2023/09/15 05:48:38;;;;;;;9.93;5.13;;;;;;;;;;6068269;23;20034;-77
2023/09/15 05:51:06;;;;;;;8.15;5.10;;;;;;;;;;6094808;23;20029;-75
2023/09/15 05:53:32;;;;;;;8.25;5.18;;;;;;;;;;6062759;23;20018;-74
2023/09/15 05:55:58;;;;;;;8.52;4.95;;;;;;;;;;6043927;23;20043;-77
2023/09/15 05:58:24;;;;;;;10.90;4.72;;;;;;;;;;6063112;23;20010;-77
2023/09/15 06:00:54;;;;;;;6.30;4.65;;;;;;;;;;6091172;23;20010;-73
2023/09/15 06:03:20;;;;;;;8.43;4.82;;;;;;;;;;6042338;23;20010;-75
2023/09/15 06:05:45;;;;;;;9.30;5.00;;;;;;;;;;6093836;23;20046;-72
2023/09/15 06:08:11;;;;;;;12.68;4.90;;;;;;;;;;6067652;23;20010;-76
2023/09/15 06:10:39;;;;;;;8.43;4.85;;;;;;;;;;6072255;23;20348;-75
2023/09/15 06:13:06;;;;;;;11.15;5.07;;;;;;;;;;6094838;23;20165;-77
2023/09/15 06:15:31;;;;;;;9.75;5.10;;;;;;;;;;6052557;23;20022;-80
2023/09/15 06:17:57;;;;;;;7.70;4.38;;;;;;;;;;6081081;23;20034;-78
2023/09/15 06:20:22;;;;;;;9.02;5.38;;;;;;;;;;6075053;23;20021;-76
2023/09/15 06:22:48;;;;;;;15.93;6.18;;;;;;;;;;6064795;23;20583;-76
2023/09/15 06:25:14;;;;;;;117.97;16.63;;;;;;;;;;6064731;23;20838;-76
2023/09/15 06:27:39;;;;;;;12.45;5.80;;;;;;;;;;6065102;23;20011;-79
2023/09/15 06:30:06;;;;;;;17.08;6.57;;;;;;;;;;6094849;23;20006;-82
2023/09/15 06:32:31;;;;;;;10.60;5.80;;;;;;;;;;6090924;23;20002;-79
2023/09/15 06:34:57;;;;;;;20.42;7.10;;;;;;;;;;6065286;23;20037;-78
2023/09/15 06:37:24;;;;;;;8.27;5.90;;;;;;;;;;6068192;23;20455;-83
2023/09/15 06:39:49;;;;;;;9.02;6.15;;;;;;;;;;6065924;23;20053;-75
2023/09/15 06:42:15;;;;;;;10.82;6.00;;;;;;;;;;6090508;23;20472;-78
2023/09/15 06:44:41;;;;;;;11.38;6.22;;;;;;;;;;6090710;23;20046;-76
2023/09/15 06:47:07;;;;;;;12.77;5.80;;;;;;;;;;6091189;23;20002;-76
2023/09/15 06:49:32;;;;;;;10.27;5.97;;;;;;;;;;6066821;23;20016;-77
2023/09/15 06:51:58;;;;;;;11.27;6.13;;;;;;;;;;6086773;23;20085;-79
2023/09/15 06:54:25;;;;;;;9.85;6.43;;;;;;;;;;6065090;23;20006;-76
2023/09/15 06:56:51;;;;;;;13.57;6.38;;;;;;;;;;6090925;23;20025;-76
2023/09/15 06:59:17;;;;;;;11.30;6.70;;;;;;;;;;6064216;23;20014;-75
2023/09/15 07:01:43;;;;;;;9.48;6.53;;;;;;;;;;6064950;23;20010;-77
2023/09/15 07:04:10;;;;;;;12.75;7.00;;;;;;;;;;6066143;23;20013;-78
2023/09/15 07:06:36;;;;;;;9.32;6.53;;;;;;;;;;6063526;23;20016;-76
2023/09/15 07:09:02;;;;;;;12.82;6.35;;;;;;;;;;6062524;23;20387;-76
2023/09/15 07:11:29;;;;;;;11.73;6.35;;;;;;;;;;6088311;23;20122;-76
2023/09/15 07:13:55;;;;;;;13.02;6.78;;;;;;;;;;6100701;23;20002;-74
2023/09/15 07:16:21;;;;;;;7.95;5.50;;;;;;;;;;6076896;23;20070;-75
2023/09/15 07:18:48;;;;;;;11.95;6.88;;;;;;;;;;6064099;23;20299;-77
2023/09/15 07:21:13;;;;;;;13.18;8.32;;;;;;;;;;6060092;23;20019;-79
2023/09/15 07:23:39;;;;;;;15.38;6.40;;;;;;;;;;6058238;23;20341;-75
2023/09/15 07:26:06;;;;;;;20.08;7.03;;;;;;;;;;6059611;23;20348;-73
2023/09/15 07:28:31;;;;;;;11.93;6.93;;;;;;;;;;6058893;23;20070;-75
2023/09/15 07:31:04;;;;;;;12.13;6.15;;;;;;;;;;6058755;23;20038;-77
2023/09/15 07:33:30;;;;;;;11.85;6.13;;;;;;;;;;6057024;23;20006;-74
2023/09/15 07:36:04;;;;;;;10.68;6.03;;;;;;;;;;6059924;23;20011;-76
2023/09/15 07:38:33;;;;;;;12.43;6.80;;;;;;;;;;6050523;23;20015;-76
2023/09/15 07:40:59;;;;;;;10.95;6.72;;;;;;;;;;6057300;23;20372;-77
2023/09/15 07:43:24;;;;;;;12.38;7.38;;;;;;;;;;6054778;23;20003;-75
2023/09/15 07:45:50;;;;;;;12.18;6.43;;;;;;;;;;6058662;23;20013;-76
2023/09/15 07:48:17;;;;;;;11.07;7.00;;;;;;;;;;6061192;23;20019;-75
2023/09/15 07:50:42;;;;;;;12.95;6.88;;;;;;;;;;6063945;23;20006;-76
2023/09/15 07:53:08;;;;;;;12.00;6.47;;;;;;;;;;6061424;23;20002;-75
2023/09/15 07:55:34;;;;;;;15.13;6.75;;;;;;;;;;6063494;23;20010;-73
2023/09/15 07:57:59;;;;;;;11.55;6.72;;;;;;;;;;6058781;23;20002;-75
2023/09/15 08:00:25;;;;;;;16.05;7.60;;;;;;;;;;6054316;23;20011;-74
2023/09/15 08:02:51;;;;;;;14.05;6.75;;;;;;;;;;6057938;23;20010;-76
2023/09/15 08:05:16;;;;;;;16.00;7.03;;;;;;;;;;6059701;23;20221;-78
2023/09/15 08:07:44;;;;;;;21.65;7.03;;;;;;;;;;6055920;23;20437;-77
2023/09/15 08:10:11;;;;;;;18.33;7.35;;;;;;;;;;6056670;23;20061;-77
2023/09/15 08:12:37;;;;;;;11.25;6.90;;;;;;;;;;6053120;23;20026;-74
2023/09/15 08:15:05;;;;;;;10.25;6.65;;;;;;;;;;6057766;23;20009;-75
2023/09/15 08:17:33;;;;;;;11.85;6.80;;;;;;;;;;6054885;23;20429;-76
2023/09/15 08:19:59;;;;;;;11.05;6.80;;;;;;;;;;6057215;23;20027;-76
2023/09/15 08:22:27;;;;;;;17.60;9.63;;;;;;;;;;6055986;23;20042;-76
2023/09/15 08:24:53;;;;;;;11.48;7.43;;;;;;;;;;6056274;23;20021;-76
2023/09/15 08:27:19;;;;;;;11.90;8.10;;;;;;;;;;6080011;23;20102;-77
2023/09/15 08:29:46;;;;;;;18.73;8.55;;;;;;;;;;6057026;23;20034;-76
2023/09/15 08:32:13;;;;;;;14.25;7.28;;;;;;;;;;6059094;23;20026;-75
2023/09/15 08:34:41;;;;;;;14.80;7.60;;;;;;;;;;6061907;23;20397;-75
2023/09/15 08:37:06;;;;;;;17.73;7.68;;;;;;;;;;6062122;23;20401;-75
2023/09/15 08:39:32;;;;;;;14.35;6.32;;;;;;;;;;6066141;23;20003;-75
2023/09/15 08:42:04;;;;;;;13.68;6.55;;;;;;;;;;6064060;23;20330;-76
2023/09/15 08:44:32;;;;;;;16.08;7.53;;;;;;;;;;6065428;23;20281;-75
2023/09/15 08:47:04;;;;;;;12.57;6.90;;;;;;;;;;6041250;23;20058;-75
2023/09/15 08:49:30;;;;;;;11.32;6.57;;;;;;;;;;6042643;23;20045;-75
2023/09/15 08:51:57;;;;;;;11.15;7.00;;;;;;;;;;6062615;23;20047;-76
2023/09/15 08:54:23;;;;;;;8.80;5.88;;;;;;;;;;6062500;23;20034;-76
2023/09/15 08:56:49;;;;;;;11.25;6.22;;;;;;;;;;6060123;23;20698;-76
2023/09/15 08:59:16;;;;;;;12.52;6.32;;;;;;;;;;6060944;23;20034;-76
2023/09/15 09:01:42;;;;;;;10.48;6.03;;;;;;;;;;6057013;23;20121;-75
2023/09/15 09:04:07;;;;;;;8.98;6.78;;;;;;;;;;6061464;23;20049;-75
2023/09/15 09:06:37;;;;;;;16.40;7.43;;;;;;;;;;6061772;23;20014;-75
2023/09/15 09:09:04;;;;;;;10.55;6.18;;;;;;;;;;6059915;23;20003;-75
2023/09/15 09:11:30;;;;;;;7.75;5.38;;;;;;;;;;6057620;23;20010;-76
2023/09/15 09:13:56;;;;;;;15.00;6.25;;;;;;;;;;6058734;23;20006;-76
2023/09/15 09:16:22;;;;;;;9.40;5.80;;;;;;;;;;6060476;23;20015;-75
2023/09/15 09:18:58;;;;;;;19.10;8.00;;;;;;;;;;6057922;23;20086;-75
2023/09/15 09:21:29;;;;;;;10.35;5.35;;;;;;;;;;6050255;23;20810;-76
2023/09/15 09:23:55;;;;;;;8.93;5.30;;;;;;;;;;6057819;23;20011;-78
2023/09/15 09:26:21;;;;;;;8.32;5.85;;;;;;;;;;6056594;23;20015;-74
2023/09/15 09:28:47;;;;;;;13.40;5.80;;;;;;;;;;6058575;23;20026;-75
2023/09/15 09:31:15;;;;;;;12.95;5.43;;;;;;;;;;6063531;23;20037;-74
2023/09/15 09:33:41;;;;;;;13.20;5.43;;;;;;;;;;6065197;23;20088;-74
2023/09/15 09:36:15;;;;;;;9.10;5.75;;;;;;;;;;6066780;23;20065;-75
2023/09/15 09:38:47;;;;;;;12.60;8.77;;;;;;;;;;6064341;23;20069;-74
2023/09/15 09:41:15;;;;;;;8.15;5.68;;;;;;;;;;6060705;23;20007;-75
2023/09/15 09:43:44;;;;;;;9.43;5.22;;;;;;;;;;6061569;23;20097;-74
2023/09/15 09:46:10;;;;;;;7.88;5.53;;;;;;;;;;6062244;23;20014;-74
2023/09/15 09:48:37;;;;;;;10.32;5.07;;;;;;;;;;6061566;23;20010;-75
2023/09/15 09:51:04;;;;;;;9.32;4.50;;;;;;;;;;6065166;23;20006;-75
2023/09/15 09:53:34;;;;;;;7.50;5.22;;;;;;;;;;6062577;23;20436;-74
2023/09/15 09:56:05;;;;;;;7.93;5.22;;;;;;;;;;6063521;23;20013;-74
2023/09/15 09:58:36;;;;;;;11.70;6.10;;;;;;;;;;6038133;23;20011;-75
2023/09/15 10:01:04;;;;;;;6.38;4.28;;;;;;;;;;6062701;23;20630;-75
2023/09/15 10:03:30;;;;;;;4.68;3.90;;;;;;;;;;6061912;23;20061;-74
2023/09/15 10:05:57;;;;;;;7.90;4.53;;;;;;;;;;6063046;23;20089;-75
2023/09/15 10:08:23;;;;;;;7.05;4.47;;;;;;;;;;6063140;23;20097;-76
2023/09/15 10:10:51;;;;;;;5.72;4.28;;;;;;;;;;6038356;23;20074;-75
2023/09/15 10:13:17;;;;;;;6.88;4.00;;;;;;;;;;6064713;23;20378;-75
2023/09/15 10:15:45;;;;;;;7.90;4.35;;;;;;;;;;6062342;23;20419;-74
2023/09/15 10:18:13;;;;;;;5.82;3.58;;;;;;;;;;6062704;23;20057;-74
2023/09/15 10:20:44;;;;;;;6.95;4.22;;;;;;;;;;6062245;23;20010;-74
2023/09/15 10:23:13;;;;;;;7.40;5.18;;;;;;;;;;6065339;23;20082;-74
2023/09/15 10:25:47;;;;;;;6.72;4.28;;;;;;;;;;6066687;23;20436;-75
2023/09/15 10:28:14;;;;;;;10.73;4.93;;;;;;;;;;6043456;23;20010;-73
2023/09/15 10:30:41;;;;;;;7.32;4.25;;;;;;;;;;6067235;23;20062;-74
2023/09/15 10:33:08;;;;;;;17.20;4.68;;;;;;;;;;6065886;23;20010;-74
2023/09/15 10:35:34;;;;;;;12.45;5.60;;;;;;;;;;6065358;23;20011;-73
2023/09/15 10:38:03;;;;;;;8.52;4.30;;;;;;;;;;6064167;23;20058;-73
2023/09/15 10:40:45;;;;;;;7.40;4.03;;;;;;;;;;6057348;23;20010;-75
2023/09/15 10:43:11;;;;;;;5.70;3.75;;;;;;;;;;6054720;23;20504;-73
2023/09/15 10:45:37;;;;;;;5.35;3.17;;;;;;;;;;6059281;23;20156;-74
2023/09/15 10:48:04;;;;;;;4.55;3.13;;;;;;;;;;6057583;23;20102;-75
2023/09/15 10:50:39;;;;;;;7.35;4.60;;;;;;;;;;6059114;23;20014;-76
2023/09/15 10:53:12;;;;;;;6.50;4.20;;;;;;;;;;6056749;23;20029;-75
2023/09/15 10:55:40;;;;;;;7.80;4.60;;;;;;;;;;6057624;23;20089;-74
2023/09/15 10:58:06;;;;;;;8.63;4.03;;;;;;;;;;6060961;23;20034;-74
2023/09/15 11:00:33;;;;;;;10.85;4.53;;;;;;;;;;6058655;23;20348;-75
2023/09/15 11:03:01;;;;;;;9.32;4.97;;;;;;;;;;6010520;23;20093;-75
2023/09/15 11:05:29;;;;;;;6.25;3.70;;;;;;;;;;6034430;23;20413;-76
2023/09/15 11:08:00;;;;;;;6.40;4.38;;;;;;;;;;6035918;23;20030;-76
2023/09/15 11:10:31;;;;;;;6.68;3.55;;;;;;;;;;6035999;23;20432;-76
2023/09/15 11:13:02;;;;;;;9.20;3.75;;;;;;;;;;6034815;23;20492;-76
2023/09/15 11:15:28;;;;;;;11.30;4.77;;;;;;;;;;6059314;23;20039;-76
2023/09/15 11:17:56;;;;;;;7.45;3.15;;;;;;;;;;6060702;23;20070;-74
2023/09/15 11:20:21;;;;;;;5.47;3.72;;;;;;;;;;6040959;23;20018;-75
2023/09/15 11:22:47;;;;;;;7.40;3.47;;;;;;;;;;6085847;23;20006;-76
2023/09/15 11:25:15;;;;;;;7.50;3.50;;;;;;;;;;6091434;23;20006;-75
2023/09/15 11:27:41;;;;;;;6.60;3.85;;;;;;;;;;6067069;23;20006;-75
2023/09/15 11:30:07;;;;;;;7.93;4.00;;;;;;;;;;6066605;23;20003;-74
2023/09/15 11:32:34;;;;;;;7.68;3.33;;;;;;;;;;6089712;23;20030;-76
2023/09/15 11:35:05;;;;;;;6.57;3.38;;;;;;;;;;6089135;23;20010;-75
2023/09/15 11:37:33;;;;;;;14.27;6.32;;;;;;;;;;6063564;23;20041;-76
2023/09/15 11:39:59;;;;;;;16.20;6.20;;;;;;;;;;6063421;23;20408;-76
2023/09/15 11:42:24;;;;;;;5.55;3.25;;;;;;;;;;6063341;23;20694;-74
2023/09/15 11:44:50;;;;;;;7.30;4.32;;;;;;;;;;6062997;23;20573;-74
2023/09/15 11:47:16;;;;;;;8.80;7.25;;;;;;;;;;6087944;23;20462;-74
2023/09/15 11:49:42;;;;;;;5.10;3.25;;;;;;;;;;6086849;23;20070;-74
2023/09/15 11:52:09;;;;;;;8.30;5.60;;;;;;;;;;6089616;23;20017;-74
2023/09/15 11:54:36;;;;;;;5.40;2.42;;;;;;;;;;6065217;23;20334;-75
2023/09/15 11:57:02;;;;;;;6.55;3.97;;;;;;;;;;6066130;23;20017;-72
2023/09/15 11:59:29;;;;;;;4.63;3.00;;;;;;;;;;6066234;23;20295;-74
2023/09/15 12:01:58;;;;;;;5.60;3.00;;;;;;;;;;6066134;23;20085;-78
2023/09/15 12:04:24;;;;;;;11.13;8.05;;;;;;;;;;6070955;23;20014;-79
2023/09/15 12:06:50;;;;;;;10.88;9.50;;;;;;;;;;6068182;23;20006;-76
2023/09/15 12:09:19;;;;;;;6.43;3.58;;;;;;;;;;6068898;23;20010;-78
2023/09/15 12:11:46;;;;;;;5.30;2.80;;;;;;;;;;6093692;23;20021;-79
2023/09/15 12:14:13;;;;;;;8.52;4.15;;;;;;;;;;6065192;23;20006;-78
2023/09/15 12:16:39;;;;;;;5.07;2.47;;;;;;;;;;6013269;23;20051;-77
2023/09/15 12:19:06;;;;;;;5.25;4.40;;;;;;;;;;6030848;23;20090;-76
2023/09/15 12:21:34;;;;;;;5.82;4.22;;;;;;;;;;6031123;23;20029;-74
2023/09/15 12:24:10;;;;;;;4.88;2.45;;;;;;;;;;6029318;23;20477;-74
2023/09/15 12:26:37;;;;;;;7.43;3.92;;;;;;;;;;6030594;23;20510;-74
2023/09/15 12:29:03;;;;;;;5.13;3.05;;;;;;;;;;6030643;23;20018;-75
2023/09/15 12:31:29;;;;;;;4.50;2.78;;;;;;;;;;6028754;23;20117;-76
2023/09/15 12:33:57;;;;;;;3.17;2.35;;;;;;;;;;6031540;23;20074;-73
2023/09/15 12:36:22;;;;;;;6.90;2.80;;;;;;;;;;6052115;23;20094;-74
2023/09/15 12:38:50;;;;;;;9.18;4.35;;;;;;;;;;6029348;23;20623;-75
2023/09/15 12:41:16;;;;;;;5.97;2.63;;;;;;;;;;6005949;23;20081;-74
2023/09/15 12:43:42;;;;;;;2.65;2.10;;;;;;;;;;6030232;23;20007;-75
2023/09/15 12:46:09;;;;;;;4.32;2.38;;;;;;;;;;6028876;23;20015;-77
2023/09/15 12:48:34;;;;;;;2.70;2.15;;;;;;;;;;6029970;23;20027;-73
2023/09/15 12:51:00;;;;;;;3.92;1.98;;;;;;;;;;6029993;23;20016;-73
2023/09/15 12:53:26;;;;;;;3.42;2.13;;;;;;;;;;6030357;23;20070;-75
2023/09/15 12:55:53;;;;;;;3.88;1.92;;;;;;;;;;6030824;23;20106;-74
2023/09/15 12:58:19;;;;;;;4.40;2.08;;;;;;;;;;6031926;23;20035;-75
2023/09/15 13:00:44;;;;;;;8.27;3.47;;;;;;;;;;6032020;23;20007;-77
2023/09/15 13:03:10;;;;;;;2.20;2.00;;;;;;;;;;6029261;23;20008;-76
2023/09/15 13:05:36;;;;;;;4.43;2.58;;;;;;;;;;6030948;23;20007;-77
2023/09/15 13:08:01;;;;;;;5.32;2.25;;;;;;;;;;6029861;23;20095;-74
2023/09/15 13:10:30;;;;;;;4.20;2.47;;;;;;;;;;6032355;23;20283;-78
2023/09/15 13:12:56;;;;;;;10.63;6.22;;;;;;;;;;6033395;23;20070;-77
2023/09/15 13:15:21;;;;;;;3.58;2.78;;;;;;;;;;6029049;23;20643;-75
2023/09/15 13:17:49;;;;;;;5.55;3.40;;;;;;;;;;6061086;23;20088;-75
2023/09/15 13:20:18;;;;;;;5.32;2.40;;;;;;;;;;6036754;23;20070;-74
2023/09/15 13:22:43;;;;;;;4.80;2.10;;;;;;;;;;6059993;23;20770;-76
2023/09/15 13:25:10;;;;;;;6.30;2.25;;;;;;;;;;6034733;23;20010;-77
2023/09/15 13:27:36;;;;;;;3.53;2.17;;;;;;;;;;6063762;23;20011;-77
2023/09/15 13:30:05;;;;;;;3.17;2.45;;;;;;;;;;6039318;23;20301;-79
2023/09/15 13:32:34;;;;;;;5.72;2.22;;;;;;;;;;6043231;23;20011;-81
2023/09/15 13:35:00;;;;;;;4.55;2.97;;;;;;;;;;6069896;23;20401;-78
2023/09/15 13:37:27;;;;;;;6.45;2.58;;;;;;;;;;6046835;23;20278;-83
2023/09/15 13:39:53;;;;;;;5.30;2.88;;;;;;;;;;6064217;23;20015;-78
2023/09/15 13:42:33;;;;;;;2.38;1.98;;;;;;;;;;6090609;23;19995;-79
2023/09/15 13:44:59;;;;;;;6.25;4.38;;;;;;;;;;6051681;23;20007;-78
2023/09/15 13:47:29;;;;;;;8.07;4.78;;;;;;;;;;6046186;23;20400;-80
2023/09/15 13:49:55;;;;;;;7.28;3.83;;;;;;;;;;6066506;23;20077;-75
2023/09/15 13:52:22;;;;;;;4.38;2.03;;;;;;;;;;6062132;23;20456;-75
2023/09/15 13:54:49;;;;;;;2.58;1.80;;;;;;;;;;6059430;23;20431;-75
2023/09/15 13:57:14;;;;;;;6.53;2.75;;;;;;;;;;6060142;23;20049;-75
2023/09/15 13:59:40;;;;;;;7.13;3.58;;;;;;;;;;6060096;23;20034;-76
2023/09/15 14:02:06;;;;;;;4.70;3.22;;;;;;;;;;6063355;23;20034;-75
2023/09/15 14:04:31;;;;;;;4.03;2.45;;;;;;;;;;6036953;23;20014;-76
2023/09/15 14:07:04;;;;;;;2.78;1.90;;;;;;;;;;6063529;23;20007;-75
2023/09/15 14:09:30;;;;;;;8.73;2.90;;;;;;;;;;6055778;23;20614;-77
2023/09/15 14:11:56;;;;;;;4.20;2.00;;;;;;;;;;6033562;23;20011;-75
2023/09/15 14:14:21;;;;;;;8.48;3.95;;;;;;;;;;6037881;23;20090;-75
2023/09/15 14:16:47;;;;;;;3.45;2.13;;;;;;;;;;6025246;23;20018;-75
2023/09/15 14:19:14;;;;;;;3.72;1.80;;;;;;;;;;6036809;23;20046;-76
2023/09/15 14:21:40;;;;;;;3.33;2.20;;;;;;;;;;6036383;23;20010;-77
2023/09/15 14:24:07;;;;;;;2.88;2.00;;;;;;;;;;6060327;23;20003;-75
2023/09/15 14:26:34;;;;;;;8.50;2.63;;;;;;;;;;6035304;23;20449;-74
2023/09/15 14:28:59;;;;;;;3.08;1.70;;;;;;;;;;6037809;23;20007;-74
2023/09/15 14:31:26;;;;;;;5.82;2.47;;;;;;;;;;6038979;23;20007;-77
2023/09/15 14:33:51;;;;;;;3.08;2.13;;;;;;;;;;6038511;23;20010;-73
2023/09/15 14:36:17;;;;;;;5.30;2.17;;;;;;;;;;6040673;23;20441;-73
2023/09/15 14:38:43;;;;;;;4.80;2.63;;;;;;;;;;6070402;23;20026;-75